Time;durP1;ratioP1;P1;durP2;ratioP2;P2;SDS_P1;SDS_P2;PMS_P1;PMS_P2;Temp;Humidity;BMP_temperature;BMP_pressure;BME280_temperature;BME280_humidity;BME280_pressure;Samples;Min_cycle;Max_cycle;Signal;HPM_P1;HPM_P2
2022/11/06 00:01:48;;;;;;;14.50;7.60;;;;;;;10.93;75.17;100639.58;105031;1292;107662;-88
2022/11/06 00:04:19;;;;;;;14.50;7.70;;;;;;;10.93;75.08;100642.44;105064;1301;94250;-88
2022/11/06 00:06:50;;;;;;;15.50;7.70;;;;;;;10.94;75.04;100645.58;104852;1298;139327;-88
2022/11/06 00:09:23;;;;;;;20.10;10.60;;;;;;;10.96;74.96;100650.00;105065;1291;110368;-88
2022/11/06 00:11:54;;;;;;;16.30;8.90;;;;;;;10.94;74.70;100650.92;104835;1298;140295;-88
2022/11/06 00:14:24;;;;;;;16.20;8.20;;;;;;;10.89;74.72;100654.58;105086;1290;106603;-89
2022/11/06 00:16:55;;;;;;;18.60;9.10;;;;;;;10.88;74.71;100657.09;105003;1298;140569;-88
2022/11/06 00:19:27;;;;;;;17.40;9.90;;;;;;;10.82;74.87;100657.77;105088;1297;93126;-88
2022/11/06 00:21:58;;;;;;;15.60;8.70;;;;;;;10.79;74.84;100655.16;104918;1295;107370;-88
2022/11/06 00:24:29;;;;;;;15.40;8.20;;;;;;;10.78;74.62;100653.96;104946;1282;140590;-89
2022/11/06 00:27:00;;;;;;;15.40;7.90;;;;;;;10.65;74.84;100654.95;105059;1295;107501;-88
2022/11/06 00:29:31;;;;;;;16.90;8.10;;;;;;;10.67;74.99;100655.45;104943;1300;139026;-88
2022/11/06 00:32:02;;;;;;;15.40;8.60;;;;;;;10.64;74.89;100659.77;105104;1297;93921;-88
2022/11/06 00:34:33;;;;;;;15.70;8.30;;;;;;;10.65;74.88;100666.84;105050;1293;107535;-88
2022/11/06 00:37:06;;;;;;;15.80;8.00;;;;;;;10.66;74.78;100666.47;105005;1291;139320;-87
2022/11/06 00:39:38;;;;;;;16.20;8.60;;;;;;;10.69;74.68;100670.84;104909;1302;109189;-88
2022/11/06 00:42:11;;;;;;;15.40;8.00;;;;;;;10.69;74.44;100676.53;104957;1305;139806;-87
2022/11/06 00:44:43;;;;;;;15.70;7.90;;;;;;;10.64;74.47;100676.48;105079;1295;93055;-87
2022/11/06 00:47:16;;;;;;;15.70;8.10;;;;;;;10.62;74.51;100678.83;104963;1301;140942;-87
2022/11/06 00:49:47;;;;;;;16.60;8.50;;;;;;;10.60;74.41;100681.71;105077;1286;98036;-88
2022/11/06 00:52:20;;;;;;;18.00;9.30;;;;;;;10.57;74.26;100680.36;105070;1295;107528;-87
2022/11/06 00:54:51;;;;;;;19.90;9.90;;;;;;;10.48;74.45;100680.90;104812;1300;139005;-87
2022/11/06 00:57:22;;;;;;;15.40;9.00;;;;;;;10.39;74.47;100680.91;105047;1293;92863;-87
2022/11/06 00:59:55;;;;;;;17.30;9.20;;;;;;;10.31;74.79;100685.11;104948;1300;139298;-87
2022/11/06 01:02:28;;;;;;;15.80;9.40;;;;;;;10.27;75.13;100686.09;105046;1299;98497;-87
2022/11/06 01:05:01;;;;;;;15.40;8.70;;;;;;;10.30;75.11;100688.15;104924;1298;139642;-87
2022/11/06 01:07:32;;;;;;;17.80;9.80;;;;;;;10.32;74.89;100691.30;105064;1295;94549;-88
2022/11/06 01:10:05;;;;;;;17.30;9.40;;;;;;;10.27;74.90;100696.04;105096;1292;93344;-87
2022/11/06 01:12:38;;;;;;;20.00;9.20;;;;;;;10.24;74.90;100696.80;104927;1292;139114;-87
2022/11/06 01:15:12;;;;;;;17.80;9.20;;;;;;;10.18;75.12;100697.45;105096;1294;100288;-87
2022/11/06 01:17:46;;;;;;;18.40;10.00;;;;;;;10.16;75.11;100693.92;104939;1301;140258;-88
2022/11/06 01:20:17;;;;;;;16.60;9.40;;;;;;;10.18;75.30;100699.56;104937;1293;93688;-87
2022/11/06 01:22:48;;;;;;;17.80;9.70;;;;;;;10.21;75.01;100699.16;105116;1292;94606;-87
2022/11/06 01:25:19;;;;;;;16.70;9.30;;;;;;;10.17;74.99;100701.71;105063;1291;108332;-87
2022/11/06 01:27:54;;;;;;;16.00;8.80;;;;;;;10.17;75.02;100701.18;105073;1292;98124;-88
2022/11/06 01:30:26;;;;;;;19.00;9.50;;;;;;;10.15;75.05;100696.45;104951;1292;139574;-87
2022/11/06 01:33:00;;;;;;;16.30;9.70;;;;;;;10.12;75.01;100698.80;104886;1295;93281;-87
2022/11/06 01:35:31;;;;;;;16.70;9.10;;;;;;;10.12;75.04;100700.40;104929;1291;138729;-88
2022/11/06 01:38:05;;;;;;;17.50;8.60;;;;;;;10.15;74.81;100701.23;105067;1298;109491;-88
2022/11/06 01:40:45;;;;;;;17.00;8.90;;;;;;;10.18;74.65;100702.07;104911;1294;98765;-88
2022/11/06 01:43:21;;;;;;;17.50;9.30;;;;;;;10.11;74.78;100706.45;104949;1298;137956;-88
2022/11/06 01:45:54;;;;;;;16.30;8.70;;;;;;;10.07;74.59;100709.37;105059;1291;93798;-88
2022/11/06 01:48:28;;;;;;;16.60;8.90;;;;;;;10.00;74.74;100712.34;105017;1290;139281;-88
2022/11/06 01:51:02;;;;;;;17.00;8.70;;;;;;;10.01;74.86;100710.74;104900;1295;109626;-88
2022/11/06 01:53:35;;;;;;;17.40;8.70;;;;;;;9.97;74.81;100712.23;104995;1297;139086;-88
2022/11/06 01:56:09;;;;;;;18.60;9.30;;;;;;;9.96;74.99;100707.81;105044;1292;107488;-88
2022/11/06 01:58:45;;;;;;;15.90;8.70;;;;;;;9.88;74.68;100710.60;105071;1293;92892;-88
2022/11/06 02:01:18;;;;;;;15.60;8.90;;;;;;;9.82;75.00;100714.63;104979;1298;138751;-88
2022/11/06 02:03:56;;;;;;;17.70;8.70;;;;;;;9.78;75.10;100713.46;104864;1301;108308;-89
2022/11/06 02:06:29;;;;;;;16.30;8.70;;;;;;;9.79;75.07;100715.57;104977;1293;139341;-88
2022/11/06 02:09:02;;;;;;;17.80;9.20;;;;;;;9.80;75.25;100717.50;105039;1299;107157;-88
2022/11/06 02:11:33;;;;;;;18.50;9.00;;;;;;;9.85;75.05;100714.75;104983;1294;140024;-87
2022/11/06 02:14:14;;;;;;;16.30;9.00;;;;;;;9.84;75.00;100716.18;105061;1298;93272;-88
2022/11/06 02:16:51;;;;;;;17.00;8.90;;;;;;;9.85;75.11;100715.46;105034;1298;109079;-88
2022/11/06 02:19:45;;;;;;;15.50;9.20;;;;;;;9.88;74.97;100717.71;105085;1285;98045;-88
2022/11/06 02:22:30;;;;;;;15.00;8.70;;;;;;;9.88;74.51;100715.59;105026;1297;107421;-88
2022/11/06 02:25:15;;;;;;;17.80;9.40;;;;;;;9.86;74.72;100715.09;104837;1300;140039;-88
2022/11/06 02:27:52;;;;;;;19.20;10.80;;;;;;;9.90;74.46;100719.10;105097;1293;93156;-88
2022/11/06 02:30:24;;;;;;;19.10;10.80;;;;;;;9.84;74.41;100720.09;104924;1297;138535;-87
2022/11/06 02:33:00;;;;;;;20.40;10.80;;;;;;;9.77;74.38;100723.58;105048;1299;97529;-88
2022/11/06 02:35:36;;;;;;;20.90;10.60;;;;;;;9.69;74.61;100730.09;104922;1285;140423;-87
2022/11/06 02:38:11;;;;;;;20.00;10.60;;;;;;;9.68;74.89;100735.08;105019;1291;93296;-88
2022/11/06 02:40:48;;;;;;;16.90;10.20;;;;;;;9.71;74.90;100741.77;105074;1291;93553;-88
2022/11/06 02:43:24;;;;;;;19.80;11.10;;;;;;;9.72;74.58;100745.11;104931;1291;138621;-89
2022/11/06 02:46:02;;;;;;;24.00;11.20;;;;;;;9.70;74.65;100749.59;105076;1290;98502;-89
2022/11/06 02:48:40;;;;;;;20.30;11.00;;;;;;;9.74;74.66;100751.83;104936;1299;138521;-88
2022/11/06 02:51:15;;;;;;;21.70;11.20;;;;;;;9.72;74.39;100749.04;105075;1297;93267;-88
2022/11/06 02:53:49;;;;;;;20.10;11.30;;;;;;;9.65;74.64;100755.89;104949;1297;139890;-88
2022/11/06 02:56:24;;;;;;;20.90;11.50;;;;;;;9.63;74.55;100757.16;105066;1291;108541;-89
2022/11/06 02:59:01;;;;;;;20.60;11.70;;;;;;;9.59;74.71;100758.98;104992;1291;138927;-88
2022/11/06 03:01:37;;;;;;;19.50;10.60;;;;;;;9.55;74.63;100759.23;105052;1292;107505;-88
2022/11/06 03:04:18;;;;;;;22.10;11.60;;;;;;;9.46;74.71;100766.46;105048;1299;93519;-88
2022/11/06 03:06:54;;;;;;;19.70;11.00;;;;;;;9.42;75.08;100767.79;104943;1285;139885;-88
2022/11/06 03:09:31;;;;;;;19.90;11.20;;;;;;;9.41;75.07;100764.95;105076;1285;108603;-88
2022/11/06 03:12:09;;;;;;;21.50;11.00;;;;;;;9.39;74.94;100762.67;104938;1294;140356;-88
2022/11/06 03:14:47;;;;;;;18.80;11.20;;;;;;;9.39;75.33;100765.88;105046;1291;107500;-87
2022/11/06 03:17:22;;;;;;;21.90;12.40;;;;;;;9.47;75.14;100761.49;104925;1291;139865;-88
2022/11/06 03:20:02;;;;;;;21.40;12.30;;;;;;;9.44;74.73;100764.20;105069;1290;94186;-88
2022/11/06 03:22:40;;;;;;;20.50;12.10;;;;;;;9.35;74.89;100758.84;105041;1299;108249;-88
2022/11/06 03:25:20;;;;;;;22.90;11.10;;;;;;;9.33;75.39;100758.86;104941;1291;138706;-88
2022/11/06 03:28:02;;;;;;;22.10;11.60;;;;;;;9.37;74.91;100759.35;104961;1294;107636;-89
2022/11/06 03:30:37;;;;;;;19.10;11.10;;;;;;;9.34;74.82;100757.43;104947;1291;138661;-88
2022/11/06 03:33:16;;;;;;;17.90;10.20;;;;;;;9.26;74.95;100759.50;105035;1291;92968;-88
2022/11/06 03:35:53;;;;;;;19.00;10.30;;;;;;;9.24;74.93;100760.44;104813;1295;138836;-89
2022/11/06 03:38:28;;;;;;;19.80;10.50;;;;;;;9.23;74.82;100762.74;105050;1294;99575;-88
2022/11/06 03:41:03;;;;;;;18.30;11.10;;;;;;;9.21;75.06;100764.90;104950;1298;139308;-88
2022/11/06 03:43:41;;;;;;;18.70;11.00;;;;;;;9.23;75.04;100766.29;105083;1290;93091;-88
2022/11/06 03:46:23;;;;;;;19.70;10.70;;;;;;;9.27;74.70;100772.79;105030;1283;94632;-88
2022/11/06 03:48:58;;;;;;;19.70;10.10;;;;;;;9.26;74.84;100774.94;104926;1292;140007;-88
2022/11/06 03:51:39;;;;;;;17.80;10.40;;;;;;;9.29;74.54;100778.05;105103;1292;98513;-88
2022/11/06 03:54:18;;;;;;;21.00;11.50;;;;;;;9.29;74.44;100781.43;104984;1291;138262;-88
2022/11/06 03:56:54;;;;;;;21.10;11.50;;;;;;;9.26;74.31;100783.25;105089;1292;93614;-88
2022/11/06 03:59:32;;;;;;;21.10;11.60;;;;;;;9.23;74.51;100784.00;105012;1291;139389;-88
2022/11/06 04:02:05;;;;;;;19.60;11.20;;;;;;;9.24;74.31;100787.55;105070;1290;108375;-89
2022/11/06 04:04:43;;;;;;;20.40;11.20;;;;;;;9.21;74.13;100789.35;105088;1285;98069;-87
2022/11/06 04:07:20;;;;;;;20.50;11.40;;;;;;;9.14;74.30;100787.85;104817;1295;138263;-88
2022/11/06 04:15:42;;;;;;;20.90;10.70;;;;;;;9.09;74.39;100787.75;105066;1299;110133;-89
2022/11/06 04:18:19;;;;;;;19.70;11.40;;;;;;;9.07;74.48;100786.19;104975;1294;139366;-88
2022/11/06 04:27:01;;;;;;;21.20;11.80;;;;;;;9.05;74.24;100792.23;105088;1290;93195;-89
2022/11/06 04:29:48;;;;;;;21.90;12.10;;;;;;;9.03;74.53;100792.77;104960;1299;139600;-88
2022/11/06 04:32:29;;;;;;;20.50;11.80;;;;;;;9.05;74.11;100790.46;105082;1294;98815;-88
2022/11/06 04:35:05;;;;;;;20.70;11.30;;;;;;;8.96;74.32;100793.23;104847;1288;139405;-88
2022/11/06 04:37:44;;;;;;;21.90;11.90;;;;;;;8.84;74.24;100792.14;105112;1290;93249;-88
2022/11/06 04:40:23;;;;;;;20.20;10.50;;;;;;;8.79;74.91;100790.45;105114;1298;93119;-88
2022/11/06 04:42:59;;;;;;;19.70;11.20;;;;;;;8.78;74.96;100787.98;104940;1291;139657;-88
2022/11/06 04:45:35;;;;;;;19.90;11.20;;;;;;;8.77;74.92;100779.67;105088;1291;99912;-90
2022/11/06 04:48:07;;;;;;;21.90;11.20;;;;;;;8.79;75.07;100775.40;104963;1294;138195;-89
2022/11/06 04:50:45;;;;;;;20.10;10.60;;;;;;;8.78;75.05;100772.39;104935;1301;94091;-88
2022/11/06 04:53:17;;;;;;;17.20;10.20;;;;;;;8.78;75.16;100775.77;104985;1287;140018;-88
2022/11/06 04:55:50;;;;;;;22.50;10.00;;;;;;;8.82;75.02;100773.42;105091;1292;109094;-88
2022/11/06 04:58:24;;;;;;;18.90;10.60;;;;;;;8.81;74.79;100770.41;105111;1291;98027;-88
2022/11/06 05:00:56;;;;;;;19.70;10.30;;;;;;;8.83;74.92;100774.98;104687;1294;171563;-88
2022/11/06 05:03:29;;;;;;;16.00;9.80;;;;;;;8.80;74.48;100774.86;105063;1299;93173;-89
2022/11/06 05:06:02;;;;;;;18.20;10.20;;;;;;;8.69;74.56;100779.59;105023;1298;139246;-88
2022/11/06 05:08:33;;;;;;;22.70;9.90;;;;;;;8.61;74.73;100786.59;104948;1288;108406;-88
2022/11/06 05:11:05;;;;;;;20.40;10.20;;;;;;;8.53;74.74;100781.55;104966;1293;139220;-88
2022/11/06 05:13:38;;;;;;;14.30;9.20;;;;;;;8.48;74.87;100790.98;105064;1292;107500;-88
2022/11/06 05:16:11;;;;;;;16.60;9.60;;;;;;;8.48;75.27;100790.45;105048;1291;93293;-88
2022/11/06 05:18:44;;;;;;;19.80;9.60;;;;;;;8.44;75.12;100793.84;104998;1291;139691;-87
2022/11/06 05:24:08;;;;;;;20.20;10.00;;;;;;;8.42;75.49;100799.34;104922;1290;138842;-88
2022/11/06 05:26:41;;;;;;;15.90;9.90;;;;;;;8.42;75.28;100800.92;105059;1292;108252;-88
2022/11/06 05:29:14;;;;;;;18.20;9.40;;;;;;;8.42;75.22;100803.59;104820;1298;139694;-88
2022/11/06 05:31:46;;;;;;;17.90;10.10;;;;;;;8.42;75.41;100802.34;105048;1292;93187;-88
2022/11/06 05:34:19;;;;;;;19.00;9.70;;;;;;;8.48;75.29;100808.33;105071;1297;108411;-88
2022/11/06 05:36:51;;;;;;;15.00;9.40;;;;;;;8.48;74.80;100808.68;104781;1289;138623;-88
2022/11/06 05:39:24;;;;;;;17.70;10.60;;;;;;;8.45;75.05;100811.55;105098;1291;107640;-88
2022/11/06 05:41:56;;;;;;;21.50;9.40;;;;;;;8.47;74.65;100815.79;104977;1285;138758;-87
2022/11/06 05:44:30;;;;;;;18.10;10.10;;;;;;;8.45;74.68;100819.14;105119;1291;93155;-87
2022/11/06 05:47:04;;;;;;;17.00;10.40;;;;;;;8.45;74.83;100818.08;104961;1286;137832;-88
2022/11/06 05:49:36;;;;;;;15.70;9.70;;;;;;;8.45;74.37;100816.50;104943;1299;98907;-88
2022/11/06 05:52:08;;;;;;;17.80;10.10;;;;;;;8.46;74.71;100818.07;105100;1284;107732;-88
2022/11/06 05:54:41;;;;;;;19.90;9.50;;;;;;;8.52;74.57;100826.34;104978;1294;140007;-88
2022/11/06 05:57:13;;;;;;;16.50;9.40;;;;;;;8.50;73.98;100827.79;105022;1293;92885;-88
2022/11/06 05:59:45;;;;;;;16.00;9.40;;;;;;;8.43;73.74;100830.65;104974;1290;138598;-88
2022/11/06 06:02:18;;;;;;;14.50;8.80;;;;;;;8.33;74.03;100830.58;105070;1297;98083;-87
2022/11/06 06:04:52;;;;;;;17.70;9.50;;;;;;;8.35;74.27;100833.91;105090;1291;107109;-88
2022/11/06 06:07:27;;;;;;;19.00;9.90;;;;;;;8.42;74.26;100840.56;104954;1287;93240;-87
2022/11/06 06:10:01;;;;;;;14.00;8.90;;;;;;;8.42;74.02;100846.58;105094;1292;93191;-88
2022/11/06 06:12:35;;;;;;;15.40;9.50;;;;;;;8.44;74.11;100848.88;104857;1287;139313;-88
2022/11/06 06:15:13;;;;;;;17.80;9.80;;;;;;;8.39;73.77;100844.67;105092;1291;98105;-88
2022/11/06 06:17:46;;;;;;;29.00;10.70;;;;;;;8.30;73.78;100847.41;104802;1296;138314;-88
2022/11/06 06:20:20;;;;;;;18.00;10.70;;;;;;;8.23;73.87;100850.83;105018;1291;93417;-88
2022/11/06 06:22:59;;;;;;;14.30;9.60;;;;;;;8.25;74.22;100858.07;105114;1299;93377;-87
2022/11/06 06:25:31;;;;;;;17.20;9.30;;;;;;;8.27;74.05;100863.02;105104;1292;108772;-88
2022/11/06 06:28:04;;;;;;;20.30;10.10;;;;;;;8.25;74.11;100862.52;105107;1292;97792;-88
2022/11/06 06:30:35;;;;;;;18.90;10.50;;;;;;;8.24;73.97;100864.80;104989;1291;139094;-87
2022/11/06 06:33:08;;;;;;;15.90;9.70;;;;;;;8.26;74.22;100869.03;105072;1290;93226;-89
2022/11/06 06:35:43;;;;;;;16.30;10.00;;;;;;;8.30;74.14;100868.82;104983;1284;139043;-88
2022/11/06 06:38:16;;;;;;;16.60;10.30;;;;;;;8.31;74.29;100870.05;104964;1295;108613;-88
2022/11/06 06:40:54;;;;;;;19.50;10.30;;;;;;;8.33;74.28;100871.80;104897;1294;98096;-88
2022/11/06 06:43:28;;;;;;;16.00;9.90;;;;;;;8.19;73.99;100879.88;104950;1291;138989;-90
2022/11/06 06:46:01;;;;;;;15.60;9.90;;;;;;;8.09;74.20;100876.95;105100;1291;94511;-87
2022/11/06 06:48:34;;;;;;;18.70;11.00;;;;;;;8.06;74.69;100876.98;104992;1291;140600;-87
2022/11/06 06:51:06;;;;;;;21.20;11.80;;;;;;;8.05;75.13;100879.81;105085;1283;109093;-89
2022/11/06 06:53:42;;;;;;;22.00;12.20;;;;;;;8.01;74.88;100883.05;105000;1292;138423;-88
2022/11/06 06:56:14;;;;;;;17.40;10.90;;;;;;;7.98;75.31;100883.59;105098;1291;107909;-88
2022/11/06 06:58:49;;;;;;;16.10;10.40;;;;;;;7.98;75.41;100888.02;105071;1291;93379;-88
2022/11/06 07:01:20;;;;;;;20.00;9.90;;;;;;;7.96;74.93;100889.98;104857;1281;139191;-88
2022/11/06 07:03:53;;;;;;;21.90;11.10;;;;;;;7.92;75.21;100888.42;105100;1285;108494;-88
2022/11/06 07:06:33;;;;;;;16.70;10.80;;;;;;;7.95;75.04;100886.98;104971;1294;138687;-87
2022/11/06 07:09:06;;;;;;;19.40;11.10;;;;;;;8.03;75.40;100889.74;105096;1284;109742;-87
2022/11/06 07:11:39;;;;;;;20.30;10.80;;;;;;;8.14;75.28;100886.29;104962;1292;139929;-88
2022/11/06 07:14:12;;;;;;;22.50;11.80;;;;;;;8.11;74.81;100887.20;105110;1294;92866;-88
2022/11/06 07:16:45;;;;;;;18.60;10.80;;;;;;;8.04;75.17;100887.62;104982;1300;107910;-87
2022/11/06 07:19:23;;;;;;;18.40;10.90;;;;;;;8.06;75.48;100886.89;104980;1292;143227;-87
2022/11/06 07:21:57;;;;;;;18.20;10.30;;;;;;;8.20;75.83;100895.27;105056;1294;107615;-88
2022/11/06 07:24:29;;;;;;;22.90;10.60;;;;;;;8.26;75.42;100893.80;104836;1302;138473;-88
2022/11/06 07:27:00;;;;;;;22.60;10.90;;;;;;;8.29;75.59;100899.08;105126;1294;93220;-87
2022/11/06 07:29:31;;;;;;;17.60;11.20;;;;;;;8.34;75.67;100897.27;104961;1291;139968;-89
2022/11/06 07:32:02;;;;;;;18.40;12.00;;;;;;;8.33;75.42;100897.45;105112;1292;98474;-89
2022/11/06 07:34:33;;;;;;;17.50;10.60;;;;;;;8.35;75.18;100897.42;105065;1291;107660;-88
2022/11/06 07:37:07;;;;;;;23.00;11.30;;;;;;;8.25;74.74;100896.63;104841;1288;139103;-87
2022/11/06 07:39:40;;;;;;;22.60;10.80;;;;;;;8.21;75.41;100893.66;104936;1294;92866;-87
2022/11/06 07:45:04;;;;;;;16.60;11.30;;;;;;;8.39;75.89;100892.80;104874;1289;97373;-88
2022/11/06 07:47:35;;;;;;;22.50;12.40;;;;;;;8.50;75.93;100902.28;104919;1292;138912;-88
2022/11/06 07:50:09;;;;;;;18.80;12.50;;;;;;;8.59;75.44;100905.92;105089;1283;93408;-89
2022/11/06 07:52:42;;;;;;;22.00;13.70;;;;;;;8.57;75.17;100906.46;105092;1283;94532;-88
2022/11/06 07:55:16;;;;;;;22.60;14.60;;;;;;;8.63;75.58;100906.23;104840;1277;139121;-87
2022/11/06 07:57:49;;;;;;;23.40;15.10;;;;;;;8.69;75.35;100908.29;105070;1292;96813;-87
2022/11/06 08:00:22;;;;;;;20.70;13.70;;;;;;;8.70;74.90;100905.80;104795;1296;138972;-88
2022/11/06 08:03:07;;;;;;;24.00;13.70;;;;;;;8.66;74.63;100908.84;105107;1299;93173;-88
2022/11/06 08:05:39;;;;;;;24.30;14.40;;;;;;;8.55;74.83;100904.54;104941;1299;138783;-88
2022/11/06 08:08:11;;;;;;;21.00;12.60;;;;;;;8.60;75.15;100904.85;104973;1287;108875;-88
2022/11/06 08:10:52;;;;;;;16.90;10.80;;;;;;;8.68;74.90;100911.84;105051;1277;98518;-88
2022/11/06 08:16:14;;;;;;;16.50;10.30;;;;;;;8.79;75.02;100904.82;105024;1292;93681;-88
2022/11/06 08:18:47;;;;;;;18.60;10.90;;;;;;;8.83;74.36;100904.77;104844;1291;138328;-88
2022/11/06 08:21:18;;;;;;;16.90;11.00;;;;;;;8.77;74.54;100906.97;105069;1286;108052;-87
2022/11/06 08:23:50;;;;;;;19.10;11.10;;;;;;;8.80;74.63;100911.19;104800;1294;140797;-87
2022/11/06 08:26:23;;;;;;;16.80;10.60;;;;;;;8.82;74.88;100913.27;104858;1284;105842;-86
2022/11/06 08:28:58;;;;;;;17.30;10.30;;;;;;;8.84;74.79;100913.62;105058;1278;93277;-88
2022/11/06 08:31:34;;;;;;;20.80;11.40;;;;;;;8.81;74.30;100915.60;104974;1294;138820;-87
2022/11/06 08:34:05;;;;;;;20.10;12.10;;;;;;;8.80;74.65;100913.66;105086;1285;107916;-88
2022/11/06 08:36:40;;;;;;;15.70;10.60;;;;;;;8.80;74.71;100912.77;104978;1292;138929;-89
2022/11/06 08:39:19;;;;;;;17.90;10.70;;;;;;;8.73;74.49;100914.27;105056;1288;108215;-88
2022/11/06 08:41:52;;;;;;;21.50;11.50;;;;;;;8.68;75.04;100916.80;104973;1278;139811;-88
2022/11/06 08:44:26;;;;;;;18.00;11.80;;;;;;;8.74;74.99;100913.56;105047;1284;93187;-87
2022/11/06 08:46:58;;;;;;;24.20;14.60;;;;;;;8.82;74.91;100910.64;105085;1285;108382;-89
2022/11/06 08:49:31;;;;;;;18.70;11.70;;;;;;;8.87;74.91;100909.88;104942;1290;139647;-87
2022/11/06 08:52:03;;;;;;;19.30;11.80;;;;;;;8.96;74.97;100911.38;104828;1295;108203;-87
2022/11/06 08:54:35;;;;;;;25.30;13.40;;;;;;;8.99;75.02;100911.15;104825;1294;138634;-88
2022/11/06 08:57:06;;;;;;;22.60;14.50;;;;;;;8.93;75.16;100911.23;105005;1278;93536;-87
2022/11/06 08:59:39;;;;;;;20.90;13.20;;;;;;;8.90;75.06;100907.36;104956;1287;139842;-88
2022/11/06 09:02:14;;;;;;;24.50;15.10;;;;;;;8.93;75.33;100905.20;104937;1294;98240;-89
2022/11/06 09:04:48;;;;;;;24.30;16.10;;;;;;;8.98;75.25;100906.91;105059;1284;108019;-88
2022/11/06 09:07:19;;;;;;;28.20;16.80;;;;;;;9.06;75.11;100899.73;104883;1285;139975;-88
2022/11/06 09:09:50;;;;;;;26.20;16.50;;;;;;;9.14;75.23;100897.15;105048;1283;93379;-89
2022/11/06 09:12:21;;;;;;;25.10;15.50;;;;;;;9.23;75.37;100894.04;104983;1292;142272;-89
2022/11/06 09:14:52;;;;;;;24.00;14.80;;;;;;;9.27;75.06;100895.40;105063;1299;96305;-88
2022/11/06 09:17:23;;;;;;;25.30;16.60;;;;;;;9.17;74.32;100894.09;104953;1291;138804;-88
2022/11/06 09:19:54;;;;;;;23.90;15.20;;;;;;;9.23;74.30;100896.86;105084;1294;92830;-88
2022/11/06 09:22:27;;;;;;;22.10;14.30;;;;;;;9.11;74.44;100904.27;104948;1294;93577;-89
2022/11/06 09:24:59;;;;;;;23.20;14.50;;;;;;;9.01;75.27;100907.23;104855;1294;139332;-90
2022/11/06 09:27:43;;;;;;;22.20;13.90;;;;;;;9.10;75.43;100909.08;105083;1291;98588;-89
2022/11/06 09:30:17;;;;;;;27.90;16.10;;;;;;;9.24;75.85;100911.73;104958;1281;139735;-90
2022/11/06 09:32:50;;;;;;;25.80;15.80;;;;;;;9.36;75.23;100914.77;105044;1294;93126;-89
2022/11/06 09:35:26;;;;;;;25.70;16.20;;;;;;;9.36;74.80;100918.31;105000;1291;138559;-89
2022/11/06 09:38:02;;;;;;;27.80;16.60;;;;;;;9.41;75.01;100923.73;104944;1291;109375;-89
2022/11/06 09:40:38;;;;;;;27.30;17.00;;;;;;;9.41;74.90;100921.44;105090;1295;98536;-90
2022/11/06 09:43:25;;;;;;;26.20;15.70;;;;;;;9.46;75.32;100919.95;104935;1295;138954;-89
2022/11/06 09:46:28;;;;;;;30.10;17.80;;;;;;;9.53;74.65;100922.17;105096;1291;93591;-89
2022/11/06 09:49:04;;;;;;;23.40;14.90;;;;;;;9.57;74.42;100926.90;104900;1285;139198;-90
2022/11/06 09:51:40;;;;;;;25.00;15.00;;;;;;;9.52;74.63;100930.33;105113;1292;108601;-89
2022/11/06 09:54:16;;;;;;;25.30;15.90;;;;;;;9.60;74.91;100930.58;104975;1291;143604;-89
2022/11/06 09:56:53;;;;;;;27.10;16.60;;;;;;;9.67;74.70;100927.48;105048;1292;107261;-89
2022/11/06 09:59:26;;;;;;;27.60;16.70;;;;;;;9.74;74.52;100929.33;104964;1285;139243;-89
2022/11/06 10:02:01;;;;;;;28.20;16.20;;;;;;;9.73;74.35;100930.58;105111;1291;93280;-90
2022/11/06 10:04:45;;;;;;;28.30;16.10;;;;;;;9.73;74.27;100926.32;105079;1297;108363;-89
2022/11/06 10:07:25;;;;;;;28.20;17.80;;;;;;;9.70;74.61;100929.02;104991;1293;139236;-89
2022/11/06 10:09:59;;;;;;;32.00;18.70;;;;;;;9.84;74.55;100924.56;105050;1292;106173;-89
2022/11/06 10:12:39;;;;;;;34.40;19.50;;;;;;;9.81;73.60;100930.29;104978;1292;138027;-89
2022/11/06 10:15:22;;;;;;;29.00;19.00;;;;;;;9.79;73.66;100926.60;105091;1284;93380;-89
2022/11/06 10:18:07;;;;;;;28.60;17.50;;;;;;;9.75;73.54;100925.23;105006;1294;139236;-89
2022/11/06 10:20:47;;;;;;;29.80;18.30;;;;;;;9.75;73.80;100929.14;105105;1291;98483;-90
2022/11/06 10:23:27;;;;;;;33.30;19.00;;;;;;;9.76;73.72;100930.54;104916;1282;138118;-89
2022/11/06 10:26:11;;;;;;;30.50;18.60;;;;;;;9.86;74.19;100931.81;105076;1284;94275;-90
2022/11/06 10:29:15;;;;;;;34.30;19.30;;;;;;;9.96;74.01;100932.91;105108;1278;92868;-89
2022/11/06 10:32:00;;;;;;;33.70;19.80;;;;;;;10.02;73.54;100926.25;104750;1294;108406;-89
2022/11/06 10:34:37;;;;;;;34.30;20.70;;;;;;;10.02;73.27;100924.65;105142;1291;97386;-89
2022/11/06 10:37:12;;;;;;;31.80;20.10;;;;;;;10.02;72.82;100920.39;105036;1291;139354;-89
2022/11/06 10:39:45;;;;;;;39.70;21.20;;;;;;;10.10;73.02;100920.45;105082;1291;93339;-89
2022/11/06 10:42:20;;;;;;;34.90;19.60;;;;;;;10.21;72.90;100917.25;104990;1285;139141;-89
2022/11/06 10:44:57;;;;;;;32.30;20.10;;;;;;;10.17;72.72;100912.35;104878;1279;108240;-91
2022/11/06 10:47:33;;;;;;;35.40;21.30;;;;;;;10.03;72.92;100911.15;104933;1274;139334;-89
2022/11/06 10:50:11;;;;;;;34.50;20.50;;;;;;;9.95;73.85;100915.17;105057;1284;107491;-89
2022/11/06 10:52:55;;;;;;;32.90;19.70;;;;;;;9.98;73.58;100914.77;105032;1283;93034;-89
2022/11/06 10:55:45;;;;;;;31.20;19.40;;;;;;;9.98;72.93;100911.05;104818;1295;137565;-89
2022/11/06 10:58:20;;;;;;;33.10;20.00;;;;;;;9.96;72.56;100904.70;104981;1280;108325;-90
2022/11/06 11:00:52;;;;;;;32.70;19.90;;;;;;;9.80;72.82;100902.09;104846;1299;140866;-88
2022/11/06 11:03:28;;;;;;;37.40;23.20;;;;;;;9.70;73.71;100899.41;105087;1284;106711;-89
2022/11/06 11:06:03;;;;;;;31.70;20.40;;;;;;;9.66;74.08;100897.87;104973;1295;140265;-89
2022/11/06 11:08:42;;;;;;;34.60;21.20;;;;;;;9.73;73.98;100893.71;105114;1288;92801;-89
2022/11/06 11:11:22;;;;;;;36.90;21.60;;;;;;;9.83;73.75;100892.65;104966;1291;138861;-89
2022/11/06 11:14:14;;;;;;;34.30;21.70;;;;;;;9.91;73.38;100888.27;104980;1288;96946;-92
2022/11/06 11:16:50;;;;;;;34.60;21.00;;;;;;;10.01;73.11;100884.58;104999;1291;107497;-90
2022/11/06 11:19:33;;;;;;;34.40;21.60;;;;;;;10.17;72.93;100880.05;104873;1300;140531;-92
2022/11/06 11:22:05;;;;;;;33.90;20.80;;;;;;;10.31;72.86;100878.22;104981;1294;93242;-92
2022/11/06 11:24:36;;;;;;;38.30;22.10;;;;;;;10.42;72.52;100875.40;104875;1294;138894;-93
2022/11/06 11:27:13;;;;;;;38.00;22.90;;;;;;;10.44;72.55;100867.73;105062;1284;97256;-92
2022/11/06 11:29:53;;;;;;;32.80;20.90;;;;;;;10.57;72.20;100865.35;104952;1295;139237;-92
2022/11/06 11:32:24;;;;;;;33.70;21.70;;;;;;;10.46;71.95;100865.74;105111;1284;92979;-92
2022/11/06 11:34:59;;;;;;;45.20;29.60;;;;;;;10.24;72.71;100866.45;105079;1294;93379;-92
2022/11/06 11:37:34;;;;;;;32.80;22.10;;;;;;;10.11;72.97;100864.17;104954;1283;138635;-92
2022/11/06 11:40:28;;;;;;;31.80;20.70;;;;;;;10.15;73.64;100863.41;105052;1294;97959;-92
2022/11/06 11:43:22;;;;;;;29.70;20.20;;;;;;;10.26;73.85;100861.09;104829;1291;139570;-92
2022/11/06 11:46:16;;;;;;;31.80;20.20;;;;;;;10.32;73.61;100856.73;105095;1291;93250;-92
2022/11/06 11:48:50;;;;;;;31.70;20.30;;;;;;;10.38;73.56;100852.94;104970;1284;138892;-93
2022/11/06 11:51:34;;;;;;;31.60;19.60;;;;;;;10.40;73.61;100849.70;105119;1278;108929;-94
2022/11/06 11:54:19;;;;;;;29.00;19.50;;;;;;;10.45;73.30;100856.53;105028;1284;139172;-94
2022/11/06 11:56:53;;;;;;;31.40;19.20;;;;;;;10.44;73.44;100851.04;104948;1295;107880;-94
2022/11/06 11:59:54;;;;;;;30.30;18.80;;;;;;;10.38;73.53;100855.39;104997;1286;139213;-91
2022/11/06 12:02:34;;;;;;;29.20;19.30;;;;;;;10.34;74.15;100854.39;104927;1291;93449;-90